createdAt,value
2018-05-15T00:00:57.665Z,8.60
2018-05-15T00:01:58.606Z,8.50
2018-05-15T00:02:57.579Z,8.40
2018-05-15T00:03:58.608Z,8.00
2018-05-15T00:04:58.146Z,8.40
2018-05-15T00:05:58.315Z,9.40
2018-05-15T00:06:57.501Z,9.30
2018-05-15T00:07:58.608Z,9.20
2018-05-15T00:08:57.413Z,8.50
2018-05-15T00:09:57.625Z,10.20
2018-05-15T00:10:57.427Z,9.70
2018-05-15T00:11:57.638Z,8.60
2018-05-15T00:12:57.343Z,8.70
2018-05-15T00:13:58.113Z,10.30
2018-05-15T00:14:57.351Z,10.10
2018-05-15T00:15:57.459Z,9.20
2018-05-15T00:16:57.258Z,9.00
2018-05-15T00:17:57.473Z,10.10
2018-05-15T00:18:57.275Z,8.90
2018-05-15T00:19:57.485Z,9.80
2018-05-15T00:20:58.154Z,8.10
2018-05-15T00:21:57.393Z,10.00
2018-05-15T00:22:57.194Z,11.20
2018-05-15T00:23:57.404Z,9.80
2018-05-15T00:24:57.121Z,9.60
2018-05-15T00:25:57.326Z,9.60
2018-05-15T00:26:57.120Z,9.70
2018-05-15T00:27:57.235Z,8.50
2018-05-15T00:28:57.031Z,9.00
2018-05-15T00:29:57.243Z,9.10
2018-05-15T00:30:57.615Z,9.40
2018-05-15T00:31:57.161Z,9.00
2018-05-15T00:32:56.963Z,9.40
2018-05-15T00:33:57.162Z,11.20
2018-05-15T00:34:57.785Z,9.30
2018-05-15T00:35:57.617Z,9.00
2018-05-15T00:36:56.881Z,9.50
2018-05-15T00:37:59.113Z,10.30
2018-05-15T00:38:56.805Z,9.00
2018-05-15T00:39:58.115Z,10.60
2018-05-15T00:40:56.798Z,9.40
2018-05-15T00:41:58.118Z,11.20
2018-05-15T00:42:57.293Z,9.50
2018-05-15T00:43:56.920Z,10.60
2018-05-15T00:44:58.121Z,9.30
2018-05-15T00:45:56.934Z,12.10
2018-05-15T00:46:57.619Z,9.50
2018-05-15T00:47:56.858Z,10.40
2018-05-15T00:48:56.647Z,12.80
2018-05-15T00:49:58.128Z,9.40
2018-05-15T00:50:56.557Z,10.00
2018-05-15T00:51:58.618Z,13.10
2018-05-15T00:52:56.570Z,12.10
2018-05-15T00:53:56.700Z,12.20
2018-05-15T00:54:56.473Z,10.20
2018-05-15T00:55:58.121Z,10.70
2018-05-15T00:56:56.460Z,9.50
2018-05-15T00:57:57.621Z,11.40
2018-05-15T00:58:57.120Z,10.70
2018-05-15T00:59:59.120Z,9.90
2018-05-15T01:00:57.314Z,9.60
2018-05-15T01:01:56.518Z,10.10
2018-05-15T01:02:59.374Z,10.20
2018-05-15T01:03:56.458Z,9.80
2018-05-15T01:04:57.623Z,10.90
2018-05-15T01:05:57.362Z,10.10
2018-05-15T01:06:56.784Z,10.40
2018-05-15T01:07:56.349Z,9.40
2018-05-15T01:08:57.124Z,10.10
2018-05-15T01:09:56.391Z,10.30
2018-05-15T01:10:57.123Z,10.30
2018-05-15T01:11:56.308Z,10.80
2018-05-15T01:12:56.108Z,10.00
2018-05-15T01:13:57.128Z,10.50
2018-05-15T01:14:56.630Z,9.60
2018-05-15T01:15:56.235Z,9.90
2018-05-15T01:16:56.628Z,9.90
2018-05-15T01:17:56.106Z,10.50
2018-05-15T01:18:55.943Z,9.70
2018-05-15T01:19:57.083Z,10.00
2018-05-15T01:20:55.912Z,10.80
2018-05-15T01:21:58.127Z,9.80
2018-05-15T01:22:55.923Z,10.20
2018-05-15T01:23:56.089Z,11.80
2018-05-15T01:24:56.862Z,9.80
2018-05-15T01:25:58.635Z,11.40
2018-05-15T01:26:56.309Z,11.30
2018-05-15T01:27:55.904Z,10.30
2018-05-15T01:28:55.787Z,10.30
2018-05-15T01:29:56.632Z,10.70
2018-05-15T01:30:59.362Z,11.30
2018-05-15T01:31:56.848Z,11.40
2018-05-15T01:32:55.733Z,11.50
2018-05-15T01:33:55.800Z,10.40
2018-05-15T01:34:58.285Z,10.20
2018-05-15T01:35:55.909Z,10.30
2018-05-15T01:36:55.608Z,11.70
2018-05-15T01:37:57.132Z,11.50
2018-05-15T01:38:57.154Z,11.60
2018-05-15T01:39:55.778Z,10.00
2018-05-15T01:40:55.482Z,10.60
2018-05-15T01:42:02.146Z,12.00
2018-05-15T01:42:59.139Z,10.30
2018-05-15T01:43:55.669Z,11.30
2018-05-15T01:44:55.408Z,9.70
2018-05-15T01:45:55.510Z,11.40
2018-05-15T01:46:57.637Z,11.10
2018-05-15T01:47:56.135Z,12.70
2018-05-15T01:48:55.324Z,10.30
2018-05-15T01:49:55.442Z,12.40
2018-05-15T01:50:55.321Z,10.20
2018-05-15T01:51:55.456Z,10.70
2018-05-15T01:52:56.143Z,12.20
2018-05-15T01:53:57.413Z,12.60
2018-05-15T01:54:55.784Z,12.10
2018-05-15T01:55:55.383Z,10.70
2018-05-15T01:56:55.837Z,10.70
2018-05-15T01:57:55.394Z,9.90
2018-05-15T01:58:55.096Z,10.50
2018-05-15T01:59:55.303Z,10.20
2018-05-15T02:00:55.081Z,11.90
2018-05-15T02:01:56.137Z,11.10
2018-05-15T02:02:55.021Z,11.90
2018-05-15T02:03:56.139Z,10.60
2018-05-15T02:04:56.656Z,10.40
2018-05-15T02:05:55.149Z,11.20
2018-05-15T02:06:54.947Z,12.30
2018-05-15T02:07:55.156Z,10.40
2018-05-15T02:08:54.954Z,9.60
2018-05-15T02:09:55.067Z,10.70
2018-05-15T02:10:54.835Z,11.50
2018-05-15T02:11:55.020Z,10.40
2018-05-15T02:12:54.783Z,12.80
2018-05-15T02:13:54.993Z,10.10
2018-05-15T02:14:54.795Z,10.80
2018-05-15T02:15:55.007Z,10.40
2018-05-15T02:16:56.143Z,12.90
2018-05-15T02:17:54.913Z,10.80
2018-05-15T02:18:55.333Z,10.20
2018-05-15T02:19:55.645Z,10.80
2018-05-15T02:20:55.147Z,12.40
2018-05-15T02:21:54.842Z,10.40
2018-05-15T02:22:56.146Z,10.90
2018-05-15T02:23:54.759Z,10.10
2018-05-15T02:24:54.556Z,10.70
2018-05-15T02:25:54.768Z,11.30
2018-05-15T02:26:54.460Z,11.00
2018-05-15T02:27:56.147Z,11.40
2018-05-15T02:28:55.657Z,11.90
2018-05-15T02:29:55.617Z,10.70
2018-05-15T02:30:54.392Z,10.30
2018-05-15T02:31:55.590Z,10.60
2018-05-15T02:32:54.406Z,12.90
2018-05-15T02:33:54.516Z,11.30
2018-05-15T02:34:54.321Z,11.10
2018-05-15T02:35:55.152Z,11.00
2018-05-15T02:36:55.649Z,10.00
2018-05-15T02:37:55.649Z,10.10
2018-05-15T02:38:56.666Z,11.80
2018-05-15T02:39:54.451Z,10.40
2018-05-15T02:40:54.654Z,12.70
2018-05-15T02:41:55.152Z,11.10
2018-05-15T02:42:54.165Z,10.80
2018-05-15T02:43:56.651Z,11.60
2018-05-15T02:44:54.075Z,11.90
2018-05-15T02:45:55.172Z,12.10
2018-05-15T02:46:54.089Z,10.60
2018-05-15T02:47:55.120Z,10.70
2018-05-15T02:48:54.007Z,12.00
2018-05-15T02:49:55.038Z,11.20
2018-05-15T02:50:54.017Z,11.70
2018-05-15T02:51:56.991Z,11.60
2018-05-15T02:52:54.655Z,10.70
2018-05-15T02:53:55.677Z,11.20
2018-05-15T02:54:54.866Z,11.30
2018-05-15T02:55:54.048Z,10.90
2018-05-15T02:56:53.855Z,12.90
2018-05-15T02:57:54.066Z,10.80
2018-05-15T02:58:54.383Z,10.60
2018-05-15T02:59:53.973Z,11.00
2018-05-15T03:00:55.314Z,10.90
2018-05-15T03:01:54.672Z,11.10
2018-05-15T03:02:54.156Z,11.40
2018-05-15T03:03:53.857Z,11.20
2018-05-15T03:04:53.706Z,12.20
2018-05-15T03:05:53.815Z,11.30
2018-05-15T03:06:54.658Z,11.30
2018-05-15T03:07:53.829Z,12.70
2018-05-15T03:08:53.629Z,10.20
2018-05-15T03:09:53.741Z,10.50
2018-05-15T03:10:53.537Z,10.70
2018-05-15T03:11:53.765Z,12.80
2018-05-15T03:12:54.166Z,12.70
2018-05-15T03:13:53.663Z,11.90
2018-05-15T03:14:53.458Z,11.00
2018-05-15T03:15:54.593Z,10.80
2018-05-15T03:16:54.161Z,11.30
2018-05-15T03:17:56.661Z,11.30
2018-05-15T03:18:53.387Z,11.50
2018-05-15T03:19:55.163Z,10.30
2018-05-15T03:20:53.295Z,11.10
2018-05-15T03:21:53.506Z,9.90
2018-05-15T03:22:53.307Z,11.70
2018-05-15T03:23:54.183Z,11.00
2018-05-15T03:24:53.229Z,11.20
2018-05-15T03:25:55.665Z,11.00
2018-05-15T03:26:53.135Z,11.70
2018-05-15T03:27:53.247Z,11.50
2018-05-15T03:28:53.098Z,11.90
2018-05-15T03:29:54.668Z,12.60
2018-05-15T03:30:53.045Z,12.70
2018-05-15T03:31:53.696Z,13.00
2018-05-15T03:32:53.281Z,11.80
2018-05-15T03:33:52.982Z,11.00
2018-05-15T03:34:54.678Z,12.60
2018-05-15T03:35:52.991Z,11.20
2018-05-15T03:36:52.951Z,11.00
2018-05-15T03:37:52.878Z,12.10
2018-05-15T03:38:53.113Z,11.30
2018-05-15T03:39:52.894Z,10.50
2018-05-15T03:40:53.954Z,13.50
2018-05-15T03:41:54.208Z,11.90
2018-05-15T03:42:53.040Z,11.60
2018-05-15T03:43:52.741Z,9.80
2018-05-15T03:44:53.674Z,11.10
2018-05-15T03:45:52.751Z,10.30
2018-05-15T03:46:54.671Z,10.50
2018-05-15T03:47:52.667Z,10.10
2018-05-15T03:48:53.869Z,11.40
2018-05-15T03:49:52.638Z,10.10
2018-05-15T03:50:54.679Z,11.00
2018-05-15T03:51:52.594Z,12.40
2018-05-15T03:52:53.688Z,9.90
2018-05-15T03:53:53.219Z,10.30
2018-05-15T03:54:54.358Z,13.00
2018-05-15T03:55:52.516Z,10.20
2018-05-15T03:56:53.696Z,10.40
2018-05-15T03:57:52.478Z,10.70
2018-05-15T03:58:52.584Z,12.80
2018-05-15T03:59:53.171Z,14.70
2018-05-15T04:00:56.182Z,10.00
2018-05-15T04:01:53.173Z,10.80
2018-05-15T04:02:52.562Z,12.40
2018-05-15T04:03:53.174Z,10.40
2018-05-15T04:04:52.577Z,11.60
2018-05-15T04:05:53.676Z,9.60
2018-05-15T04:06:52.491Z,9.80
2018-05-15T04:07:52.295Z,11.00
2018-05-15T04:08:52.450Z,11.10
2018-05-15T04:09:52.903Z,10.30
2018-05-15T04:10:53.755Z,11.30
2018-05-15T04:11:52.677Z,11.50
2018-05-15T04:12:54.676Z,10.80
2018-05-15T04:13:53.710Z,10.50
2018-05-15T04:14:54.677Z,11.90
2018-05-15T04:15:52.040Z,11.30
2018-05-15T04:16:53.190Z,10.90
2018-05-15T04:17:51.999Z,10.90
2018-05-15T04:18:52.721Z,11.00
2018-05-15T04:19:52.683Z,10.20
2018-05-15T04:20:52.681Z,10.70
2018-05-15T04:21:51.880Z,10.70
2018-05-15T04:22:53.825Z,9.90
2018-05-15T04:23:52.682Z,9.70
2018-05-15T04:24:52.696Z,11.20
2018-05-15T04:25:55.182Z,10.60
2018-05-15T04:26:52.012Z,11.30
2018-05-15T04:27:52.384Z,11.60
2018-05-15T04:28:52.023Z,10.20
2018-05-15T04:29:51.777Z,10.30
2018-05-15T04:30:51.933Z,10.60
2018-05-15T04:31:51.736Z,12.40
2018-05-15T04:32:51.953Z,11.00
2018-05-15T04:33:51.642Z,10.60
2018-05-15T04:34:52.682Z,10.80
2018-05-15T04:35:52.185Z,11.10
2018-05-15T04:36:51.826Z,10.00
2018-05-15T04:37:52.391Z,10.50
2018-05-15T04:38:52.686Z,11.10
2018-05-15T04:39:51.533Z,11.70
2018-05-15T04:40:52.183Z,9.80
2018-05-15T04:41:52.689Z,10.30
2018-05-15T04:42:53.190Z,9.90
2018-05-15T04:43:54.417Z,9.30
2018-05-15T04:44:53.206Z,11.60
2018-05-15T04:45:51.427Z,11.80
2018-05-15T04:46:51.890Z,10.90
2018-05-15T04:47:51.333Z,9.80
2018-05-15T04:48:52.187Z,10.40
2018-05-15T04:49:51.249Z,10.00
2018-05-15T04:50:52.188Z,11.80
2018-05-15T04:51:51.259Z,10.50
2018-05-15T04:52:51.408Z,10.70
2018-05-15T04:53:52.190Z,9.70
2018-05-15T04:54:51.893Z,10.00
2018-05-15T04:55:51.901Z,11.30
2018-05-15T04:56:51.332Z,11.60
2018-05-15T04:57:51.099Z,11.00
2018-05-15T04:58:51.307Z,13.80
2018-05-15T04:59:51.009Z,10.70
2018-05-15T05:00:52.701Z,10.70
2018-05-15T05:01:52.755Z,13.40
2018-05-15T05:02:52.194Z,13.70
2018-05-15T05:03:51.690Z,12.50
2018-05-15T05:04:51.694Z,10.80
2018-05-15T05:05:51.694Z,11.50
2018-05-15T05:06:51.622Z,10.90
2018-05-15T05:07:51.721Z,12.40
2018-05-15T05:08:52.194Z,10.20
2018-05-15T05:09:52.192Z,10.30
2018-05-15T05:10:51.696Z,12.40
2018-05-15T05:11:50.826Z,11.80
2018-05-15T05:12:52.210Z,14.80
2018-05-15T05:13:52.694Z,12.70
2018-05-15T05:14:52.194Z,10.50
2018-05-15T05:15:51.200Z,9.60
2018-05-15T05:16:51.697Z,10.10
2018-05-15T05:17:50.623Z,11.60
2018-05-15T05:18:50.779Z,11.70
2018-05-15T05:19:51.214Z,13.20
2018-05-15T05:20:51.695Z,12.20
2018-05-15T05:21:51.386Z,10.90
2018-05-15T05:22:50.779Z,16.10
2018-05-15T05:23:52.201Z,12.10
2018-05-15T05:24:52.198Z,10.60
2018-05-15T05:25:51.201Z,12.10
2018-05-15T05:26:50.769Z,13.30
2018-05-15T05:27:51.202Z,12.00
2018-05-15T05:28:51.200Z,12.80
2018-05-15T05:29:51.199Z,13.90
2018-05-15T05:30:51.199Z,13.40
2018-05-15T05:31:50.304Z,9.70
2018-05-15T05:32:51.202Z,12.10
2018-05-15T05:33:51.203Z,10.70
2018-05-15T05:34:50.486Z,12.90
2018-05-15T05:35:51.202Z,11.90
2018-05-15T05:36:51.201Z,12.10
2018-05-15T05:37:50.154Z,12.40
2018-05-15T05:38:51.202Z,10.60
2018-05-15T05:39:50.702Z,10.40
2018-05-15T05:40:50.703Z,11.50
2018-05-15T05:41:51.203Z,12.00
2018-05-15T05:42:50.069Z,11.50
2018-05-15T05:43:51.203Z,11.60
2018-05-15T05:44:50.726Z,13.30
2018-05-15T05:45:51.735Z,14.30
2018-05-15T05:46:50.703Z,10.90
2018-05-15T05:47:50.215Z,13.10
2018-05-15T05:48:49.912Z,13.10
2018-05-15T05:49:51.032Z,13.30
2018-05-15T05:50:50.707Z,11.10
2018-05-15T05:51:50.754Z,13.50
2018-05-15T05:52:50.721Z,12.30
2018-05-15T05:53:50.726Z,11.70
2018-05-15T05:54:50.706Z,13.90
2018-05-15T05:55:50.370Z,10.80
2018-05-15T05:56:52.731Z,12.40
2018-05-15T05:57:50.706Z,12.90
2018-05-15T05:58:50.708Z,15.60
2018-05-15T05:59:49.676Z,14.00
2018-05-15T06:00:50.709Z,11.70
2018-05-15T06:01:50.209Z,12.60
2018-05-15T06:02:49.695Z,12.90
2018-05-15T06:03:50.210Z,14.90
2018-05-15T06:04:49.813Z,11.60
2018-05-15T06:05:49.610Z,15.10
2018-05-15T06:06:50.221Z,14.20
2018-05-15T06:07:49.521Z,14.70
2018-05-15T06:08:50.215Z,13.20
2018-05-15T06:09:49.542Z,13.00
2018-05-15T06:10:50.217Z,13.10
2018-05-15T06:11:50.214Z,15.10
2018-05-15T06:12:51.210Z,15.70
2018-05-15T06:13:50.212Z,16.00
2018-05-15T06:14:50.215Z,13.20
2018-05-15T06:15:49.376Z,16.50
2018-05-15T06:16:49.577Z,13.10
2018-05-15T06:17:50.212Z,10.40
2018-05-15T06:18:50.221Z,14.30
2018-05-15T06:19:49.288Z,10.90
2018-05-15T06:20:50.440Z,12.90
2018-05-15T06:21:49.713Z,13.50
2018-05-15T06:22:49.409Z,14.00
2018-05-15T06:23:49.229Z,11.40
2018-05-15T06:24:50.213Z,14.00
2018-05-15T06:25:49.716Z,15.70
2018-05-15T06:26:50.228Z,11.70
2018-05-15T06:27:49.716Z,14.50
2018-05-15T06:28:50.214Z,12.80
2018-05-15T06:29:49.718Z,12.40
2018-05-15T06:30:49.255Z,10.80
2018-05-15T06:31:49.717Z,11.40
2018-05-15T06:32:49.718Z,13.00
2018-05-15T06:33:50.218Z,13.80
2018-05-15T06:34:49.718Z,12.30
2018-05-15T06:35:48.883Z,13.90
2018-05-15T06:36:49.389Z,12.30
2018-05-15T06:37:50.235Z,10.50
2018-05-15T06:38:49.032Z,14.20
2018-05-15T06:39:48.825Z,13.60
2018-05-15T06:40:50.739Z,11.20
2018-05-15T06:41:48.833Z,13.50
2018-05-15T06:42:48.947Z,11.40
2018-05-15T06:43:48.749Z,13.80
2018-05-15T06:44:48.974Z,11.50
2018-05-15T06:45:48.726Z,13.30
2018-05-15T06:46:48.770Z,10.70
2018-05-15T06:47:49.226Z,13.10
2018-05-15T06:48:49.722Z,11.00
2018-05-15T06:49:49.374Z,11.70
2018-05-15T06:50:49.223Z,10.80
2018-05-15T06:51:49.225Z,10.60
2018-05-15T06:52:48.775Z,17.80
2018-05-15T06:53:48.512Z,14.30
2018-05-15T06:54:48.725Z,12.80
2018-05-15T06:55:48.520Z,13.20
2018-05-15T06:56:51.229Z,16.90
2018-05-15T06:57:48.498Z,14.80
2018-05-15T06:58:48.711Z,13.50
2018-05-15T06:59:48.452Z,14.80
2018-05-15T07:00:49.512Z,13.80
2018-05-15T07:01:48.366Z,21.40
2018-05-15T07:02:48.531Z,45.40
2018-05-15T07:03:48.886Z,33.00
2018-05-15T07:04:48.244Z,32.60
2018-05-15T07:05:48.165Z,13.80
2018-05-15T07:06:49.177Z,14.70
2018-05-15T07:07:48.184Z,15.60
2018-05-15T07:08:48.166Z,14.60
2018-05-15T07:09:48.077Z,15.50
2018-05-15T07:10:48.075Z,17.10
2018-05-15T07:11:48.037Z,16.10
2018-05-15T07:12:48.089Z,16.40
2018-05-15T07:13:47.996Z,15.10
2018-05-15T07:14:47.999Z,20.70
2018-05-15T07:15:47.958Z,17.30
2018-05-15T07:16:48.016Z,19.80
2018-05-15T07:17:47.913Z,15.00
2018-05-15T07:18:47.921Z,14.70
2018-05-15T07:19:47.871Z,15.60
2018-05-15T07:20:47.934Z,19.20
2018-05-15T07:21:47.832Z,13.10
2018-05-15T07:22:47.845Z,13.20
2018-05-15T07:23:47.792Z,12.50
2018-05-15T07:24:47.857Z,12.10
2018-05-15T07:25:47.757Z,12.80
2018-05-15T07:26:47.771Z,12.30
2018-05-15T07:27:47.709Z,8.70
2018-05-15T07:28:47.784Z,9.00
2018-05-15T07:29:47.665Z,12.70
2018-05-15T07:30:47.691Z,12.00
2018-05-15T07:31:47.628Z,12.30
2018-05-15T07:32:47.706Z,10.50
2018-05-15T07:33:47.586Z,11.00
2018-05-15T07:34:47.613Z,11.00
2018-05-15T07:35:47.550Z,11.60
2018-05-15T07:36:47.628Z,13.50
2018-05-15T07:37:47.507Z,9.90
2018-05-15T07:38:47.538Z,13.60
2018-05-15T07:39:47.469Z,9.70
2018-05-15T07:40:47.558Z,10.80
2018-05-15T07:41:47.427Z,9.30
2018-05-15T07:42:47.463Z,10.50
2018-05-15T07:43:47.387Z,10.10
2018-05-15T07:44:47.473Z,10.50
2018-05-15T07:45:47.346Z,11.10
2018-05-15T07:46:47.378Z,10.00
2018-05-15T07:47:47.305Z,11.50
2018-05-15T07:48:47.393Z,11.50
2018-05-15T07:49:47.267Z,10.90
2018-05-15T07:50:47.308Z,12.20
2018-05-15T07:51:47.221Z,8.20
2018-05-15T07:52:47.318Z,9.50
2018-05-15T07:53:47.239Z,9.50
2018-05-15T07:54:47.233Z,11.80
2018-05-15T07:55:47.145Z,10.70
2018-05-15T07:56:47.238Z,12.70
2018-05-15T07:57:47.108Z,12.50
2018-05-15T07:58:47.147Z,8.60
2018-05-15T07:59:47.067Z,9.30
2018-05-15T08:00:47.159Z,8.40
2018-05-15T08:01:47.035Z,9.90
2018-05-15T08:02:47.070Z,10.90
2018-05-15T08:03:46.992Z,11.00
2018-05-15T08:04:47.083Z,9.00
2018-05-15T08:05:46.949Z,9.90
2018-05-15T08:06:46.994Z,8.30
2018-05-15T08:07:46.920Z,10.20
2018-05-15T08:08:47.004Z,9.30
2018-05-15T08:09:46.872Z,7.40
2018-05-15T08:10:46.919Z,6.30
2018-05-15T08:11:46.834Z,6.20
2018-05-15T08:12:46.927Z,10.40
2018-05-15T08:13:46.795Z,10.80
2018-05-15T08:14:46.837Z,9.70
2018-05-15T08:15:46.756Z,7.00
2018-05-15T08:16:46.854Z,7.60
2018-05-15T08:17:46.717Z,8.20
2018-05-15T08:18:46.764Z,7.10
2018-05-15T08:19:46.684Z,9.20
2018-05-15T08:20:46.772Z,10.00
2018-05-15T08:21:46.640Z,11.10
2018-05-15T08:22:46.682Z,11.20
2018-05-15T08:23:46.602Z,8.30
2018-05-15T08:24:46.694Z,9.80
2018-05-15T08:25:46.564Z,7.90
2018-05-15T08:26:46.606Z,7.10
2018-05-15T08:27:46.533Z,8.30
2018-05-15T08:28:46.618Z,8.30
2018-05-15T08:29:46.490Z,13.40
2018-05-15T08:30:46.548Z,14.00
2018-05-15T08:31:46.454Z,9.00
2018-05-15T08:32:46.539Z,7.20
2018-05-15T08:33:46.410Z,10.20
2018-05-15T08:34:46.451Z,8.80
2018-05-15T08:35:46.376Z,9.10
2018-05-15T08:36:46.463Z,7.50
2018-05-15T08:37:46.339Z,8.90
2018-05-15T08:38:46.373Z,8.10
2018-05-15T08:39:46.300Z,8.80
2018-05-15T08:40:46.388Z,5.10
2018-05-15T08:41:46.263Z,9.60
2018-05-15T08:42:46.296Z,10.60
2018-05-15T08:43:46.225Z,5.70
2018-05-15T08:44:46.318Z,7.10
2018-05-15T08:45:46.191Z,7.00
2018-05-15T08:46:46.221Z,7.20
2018-05-15T08:47:46.156Z,10.10
2018-05-15T08:48:46.232Z,10.80
2018-05-15T08:49:46.113Z,9.80
2018-05-15T08:50:46.093Z,7.90
2018-05-15T08:51:46.223Z,7.10
2018-05-15T08:52:46.057Z,6.40
2018-05-15T08:53:46.137Z,7.70
2018-05-15T08:54:46.021Z,7.10
2018-05-15T08:55:46.013Z,6.90
2018-05-15T08:56:46.155Z,8.70
2018-05-15T08:57:45.967Z,7.70
2018-05-15T08:58:46.063Z,7.30
2018-05-15T08:59:45.932Z,7.20
2018-05-15T09:00:46.077Z,6.60
2018-05-15T09:01:45.903Z,7.20
2018-05-15T09:02:45.915Z,8.40
2018-05-15T09:03:45.862Z,8.70
2018-05-15T09:04:46.000Z,8.60
2018-05-15T09:05:45.827Z,6.80
2018-05-15T09:06:45.915Z,6.70
2018-05-15T09:07:45.788Z,9.50
2018-05-15T09:08:45.844Z,7.20
2018-05-15T09:09:45.754Z,8.20
2018-05-15T09:10:45.839Z,6.30
2018-05-15T09:11:45.718Z,8.40
2018-05-15T09:12:45.851Z,8.90
2018-05-15T09:13:45.683Z,7.50
2018-05-15T09:14:45.765Z,6.50
2018-05-15T09:15:45.693Z,8.00
2018-05-15T09:16:45.779Z,8.40
2018-05-15T09:17:45.615Z,10.60
2018-05-15T09:18:45.793Z,7.30
2018-05-15T09:19:45.577Z,8.30
2018-05-15T09:20:45.704Z,8.00
2018-05-15T09:21:45.543Z,18.90
2018-05-15T09:22:46.644Z,9.20
2018-05-15T09:23:45.509Z,10.30
2018-05-15T09:24:45.631Z,15.40
2018-05-15T09:25:45.474Z,10.70
2018-05-15T09:26:45.645Z,11.70
2018-05-15T09:27:45.440Z,6.80
2018-05-15T09:28:45.556Z,9.10
2018-05-15T09:29:45.409Z,11.50
2018-05-15T09:30:45.571Z,8.40
2018-05-15T09:31:45.376Z,9.20
2018-05-15T09:32:45.484Z,8.80
2018-05-15T09:33:45.345Z,9.40
2018-05-15T09:34:45.501Z,5.50
2018-05-15T09:35:45.312Z,7.60
2018-05-15T09:36:45.510Z,6.50
2018-05-15T09:37:45.285Z,9.30
2018-05-15T09:38:45.423Z,10.00
2018-05-15T09:39:45.250Z,8.40
2018-05-15T09:40:45.337Z,7.50
2018-05-15T09:41:45.212Z,8.80
2018-05-15T09:42:45.246Z,8.30
2018-05-15T09:43:45.182Z,11.90
2018-05-15T09:44:45.272Z,8.10
2018-05-15T09:45:45.151Z,7.00
2018-05-15T09:46:46.200Z,7.30
2018-05-15T09:47:45.120Z,12.00
2018-05-15T09:48:45.187Z,5.60
2018-05-15T09:49:45.088Z,8.90
2018-05-15T09:50:45.201Z,7.70
2018-05-15T09:51:45.060Z,8.50
2018-05-15T09:52:45.115Z,6.10
2018-05-15T09:53:45.027Z,10.40
2018-05-15T09:54:45.126Z,7.70
2018-05-15T09:55:44.994Z,8.30
2018-05-15T09:56:45.038Z,6.70
2018-05-15T09:57:44.967Z,5.50
2018-05-15T09:58:45.052Z,7.60
2018-05-15T09:59:44.936Z,7.90
2018-05-15T10:00:44.964Z,7.00
2018-05-15T10:01:44.923Z,9.60
2018-05-15T10:02:44.897Z,8.10
2018-05-15T10:03:44.984Z,7.90
2018-05-15T10:04:44.859Z,6.70
2018-05-15T10:05:44.897Z,6.10
2018-05-15T10:06:44.835Z,7.10
2018-05-15T10:07:44.875Z,5.90
2018-05-15T10:08:44.814Z,6.10
2018-05-15T10:09:44.783Z,8.40
2018-05-15T10:10:44.830Z,7.00
2018-05-15T10:11:44.762Z,6.00
2018-05-15T10:12:44.845Z,5.10
2018-05-15T10:13:44.725Z,5.70
2018-05-15T10:14:44.755Z,7.20
2018-05-15T10:15:44.698Z,8.60
2018-05-15T10:16:44.768Z,6.90
2018-05-15T10:17:44.675Z,8.10
2018-05-15T10:18:44.680Z,7.10
2018-05-15T10:19:44.643Z,8.20
2018-05-15T10:20:44.699Z,6.90
2018-05-15T10:21:44.616Z,9.40
2018-05-15T10:22:44.729Z,6.60
2018-05-15T10:23:44.576Z,4.70
2018-05-15T10:24:44.626Z,5.80
2018-05-15T10:25:44.560Z,7.00
2018-05-15T10:26:44.636Z,6.00
2018-05-15T10:27:44.530Z,8.00
2018-05-15T10:28:44.549Z,5.50
2018-05-15T10:29:44.510Z,4.90
2018-05-15T10:30:44.563Z,5.70
2018-05-15T10:31:44.473Z,5.10
2018-05-15T10:32:44.475Z,6.50
2018-05-15T10:33:44.442Z,5.30
2018-05-15T10:34:44.493Z,5.60
2018-05-15T10:35:44.419Z,6.10
2018-05-15T10:36:44.501Z,8.40
2018-05-15T10:37:44.388Z,5.70
2018-05-15T10:38:44.470Z,4.60
2018-05-15T10:39:44.360Z,6.70
2018-05-15T10:40:44.444Z,6.70
2018-05-15T10:41:44.335Z,4.90
2018-05-15T10:42:44.337Z,6.70
2018-05-15T10:43:44.305Z,6.30
2018-05-15T10:44:44.351Z,4.50
2018-05-15T10:45:44.279Z,8.40
2018-05-15T10:46:44.366Z,7.50
2018-05-15T10:47:44.255Z,10.10
2018-05-15T10:48:44.239Z,7.20
2018-05-15T10:49:44.396Z,6.70
2018-05-15T10:50:44.215Z,7.10
2018-05-15T10:51:44.298Z,8.60
2018-05-15T10:52:44.189Z,4.40
2018-05-15T10:53:44.177Z,7.10
2018-05-15T10:54:44.168Z,5.50
2018-05-15T10:55:44.329Z,4.30
2018-05-15T10:56:44.138Z,5.80
2018-05-15T10:57:44.244Z,6.40
2018-05-15T10:58:44.109Z,5.30
2018-05-15T10:59:44.262Z,6.40
2018-05-15T11:00:44.078Z,4.90
2018-05-15T11:01:44.184Z,5.90
2018-05-15T11:02:44.062Z,7.40
2018-05-15T11:03:44.185Z,7.50
2018-05-15T11:04:44.036Z,7.80
2018-05-15T11:05:44.196Z,6.50
2018-05-15T11:06:44.008Z,7.60
2018-05-15T11:07:44.109Z,4.90
2018-05-15T11:08:43.983Z,5.80
2018-05-15T11:09:44.122Z,4.90
2018-05-15T11:10:43.959Z,6.10
2018-05-15T11:11:44.140Z,6.70
2018-05-15T11:12:44.005Z,6.70
2018-05-15T11:13:44.050Z,7.20
2018-05-15T11:14:43.909Z,5.90
2018-05-15T11:15:44.063Z,6.90
2018-05-15T11:16:43.882Z,6.50
2018-05-15T11:17:44.086Z,7.30
2018-05-15T11:18:43.881Z,5.40
2018-05-15T11:19:43.988Z,7.10
2018-05-15T11:20:43.860Z,7.50
2018-05-15T11:21:44.002Z,5.70
2018-05-15T11:22:43.815Z,8.60
2018-05-15T11:23:43.913Z,8.70
2018-05-15T11:24:43.782Z,6.90
2018-05-15T11:25:43.928Z,4.80
2018-05-15T11:26:43.762Z,5.20
2018-05-15T11:27:43.941Z,7.20
2018-05-15T11:28:43.742Z,7.70
2018-05-15T11:29:43.853Z,7.70
2018-05-15T11:30:43.717Z,11.60
2018-05-15T11:31:43.866Z,9.10
2018-05-15T11:32:43.693Z,11.70
2018-05-15T11:33:43.883Z,6.70
2018-05-15T11:34:43.669Z,10.70
2018-05-15T11:35:43.840Z,6.10
2018-05-15T11:36:43.644Z,7.00
2018-05-15T11:37:43.808Z,6.60
2018-05-15T11:38:43.637Z,7.40
2018-05-15T11:39:43.830Z,6.30
2018-05-15T11:40:43.599Z,6.10
2018-05-15T11:41:43.751Z,8.20
2018-05-15T11:42:43.579Z,6.80
2018-05-15T11:43:43.655Z,8.90
2018-05-15T11:44:43.634Z,5.30
2018-05-15T11:45:43.662Z,6.00
2018-05-15T11:46:43.527Z,4.00
2018-05-15T11:47:43.761Z,4.00
2018-05-15T11:48:44.203Z,4.90
2018-05-15T11:49:44.184Z,6.00
2018-05-15T11:50:44.316Z,5.50
2018-05-15T11:51:44.269Z,3.70
2018-05-15T11:52:44.051Z,7.40
2018-05-15T11:53:43.521Z,3.70
2018-05-15T11:54:43.438Z,6.50
2018-05-15T11:55:43.505Z,6.40
2018-05-15T11:56:43.419Z,5.30
2018-05-15T11:57:43.543Z,4.90
2018-05-15T11:58:43.402Z,5.70
2018-05-15T11:59:43.444Z,6.90
2018-05-15T12:00:43.373Z,6.20
2018-05-15T12:01:43.467Z,4.80
2018-05-15T12:02:43.366Z,4.30
2018-05-15T12:03:43.556Z,6.20
2018-05-15T12:04:43.329Z,7.80
2018-05-15T12:05:43.392Z,6.00
2018-05-15T12:06:43.309Z,5.90
2018-05-15T12:07:43.406Z,4.40
2018-05-15T12:08:43.287Z,5.90
2018-05-15T12:09:43.425Z,5.10
2018-05-15T12:10:43.364Z,5.50
2018-05-15T12:11:43.258Z,6.90
2018-05-15T12:12:43.247Z,6.30
2018-05-15T12:13:43.350Z,6.20
2018-05-15T12:14:43.227Z,6.40
2018-05-15T12:15:43.259Z,6.40
2018-05-15T12:16:43.204Z,4.00
2018-05-15T12:17:43.274Z,5.70
2018-05-15T12:18:43.187Z,6.90
2018-05-15T12:19:43.298Z,5.50
2018-05-15T12:20:43.162Z,4.00
2018-05-15T12:21:43.199Z,6.30
2018-05-15T12:22:43.143Z,5.40
2018-05-15T12:23:43.219Z,6.30
2018-05-15T12:24:43.121Z,5.30
2018-05-15T12:25:43.126Z,4.40
2018-05-15T12:26:43.102Z,5.20
2018-05-15T12:27:43.323Z,5.00
2018-05-15T12:28:43.081Z,4.90
2018-05-15T12:29:43.198Z,4.70
2018-05-15T12:30:43.060Z,6.80
2018-05-15T12:31:43.066Z,4.70
2018-05-15T12:32:43.039Z,4.10
2018-05-15T12:33:43.083Z,4.10
2018-05-15T12:34:43.022Z,5.70
2018-05-15T12:35:43.120Z,5.40
2018-05-15T12:36:43.014Z,5.50
2018-05-15T12:37:43.005Z,5.30
2018-05-15T12:38:42.980Z,6.50
2018-05-15T12:39:43.018Z,3.90
2018-05-15T12:40:42.961Z,7.10
2018-05-15T12:41:43.083Z,6.00
2018-05-15T12:42:42.943Z,3.80
2018-05-15T12:43:43.047Z,6.30
2018-05-15T12:44:42.922Z,4.30
2018-05-15T12:45:42.959Z,7.30
2018-05-15T12:46:42.991Z,6.70
2018-05-15T12:47:43.000Z,5.40
2018-05-15T12:48:43.002Z,5.30
2018-05-15T12:49:42.987Z,6.80
2018-05-15T12:50:42.867Z,5.50
2018-05-15T12:51:42.897Z,7.70
2018-05-15T12:52:42.840Z,6.40
2018-05-15T12:53:42.918Z,4.30
2018-05-15T12:54:42.826Z,6.70
2018-05-15T12:55:42.927Z,5.90
2018-05-15T12:56:42.808Z,13.90
2018-05-15T12:57:42.851Z,5.70
2018-05-15T12:58:42.785Z,6.80
2018-05-15T12:59:42.852Z,4.90
2018-05-15T13:00:42.769Z,6.20
2018-05-15T13:01:42.916Z,6.00
2018-05-15T13:02:42.748Z,5.70
2018-05-15T13:03:42.778Z,5.40